Time;durP1;ratioP1;P1;durP2;ratioP2;P2;SDS_P1;SDS_P2;PMS_P1;PMS_P2;Temp;Humidity;BMP_temperature;BMP_pressure;BME280_temperature;BME280_humidity;BME280_pressure;Samples;Min_cycle;Max_cycle;Signal;HPM_P1;HPM_P2
2024/02/19 00:02:10;;;;;;;17.43;3.33;;;16.00;99.90;;;;;;4996313;28;20061;-76
2024/02/19 00:04:35;;;;;;;11.18;3.10;;;16.10;99.90;;;;;;5007951;28;20030;-74
2024/02/19 00:07:01;;;;;;;5.33;1.47;;;16.00;99.90;;;;;;4995304;28;20382;-74
2024/02/19 00:09:27;;;;;;;6.70;2.20;;;16.10;99.90;;;;;;5011217;28;20030;-74
2024/02/19 00:11:53;;;;;;;6.67;1.73;;;16.00;99.90;;;;;;5010133;28;20032;-74
2024/02/19 00:14:18;;;;;;;11.40;2.87;;;16.00;99.90;;;;;;4997951;28;20034;-74
2024/02/19 00:16:46;;;;;;;8.63;1.90;;;16.00;99.90;;;;;;5007681;28;20029;-74
2024/02/19 00:19:12;;;;;;;7.78;1.75;;;16.00;99.90;;;;;;4996629;28;20033;-74
2024/02/19 00:21:38;;;;;;;9.47;2.23;;;16.00;99.90;;;;;;5006609;28;20617;-74
2024/02/19 00:24:04;;;;;;;5.90;1.70;;;16.00;99.90;;;;;;5000843;28;20022;-76
2024/02/19 00:26:30;;;;;;;6.40;2.40;;;16.00;99.90;;;;;;4995253;28;20042;-74
2024/02/19 00:28:56;;;;;;;8.47;2.33;;;15.90;99.90;;;;;;5006901;28;20034;-76
2024/02/19 00:31:22;;;;;;;11.07;2.87;;;16.00;99.90;;;;;;4999438;28;20038;-75
2024/02/19 00:33:47;;;;;;;5.97;2.00;;;15.90;99.90;;;;;;4999740;28;20033;-75
2024/02/19 00:36:13;;;;;;;6.37;1.97;;;15.90;99.90;;;;;;4999691;28;20023;-75
2024/02/19 00:38:39;;;;;;;7.40;1.53;;;15.90;99.90;;;;;;5000442;28;20026;-74
2024/02/19 00:41:04;;;;;;;7.80;2.07;;;15.90;99.90;;;;;;5006453;28;20088;-73
2024/02/19 00:43:31;;;;;;;12.90;1.80;;;15.90;99.90;;;;;;4994872;28;20590;-73
2024/02/19 00:45:57;;;;;;;8.70;2.00;;;15.90;99.90;;;;;;5001979;28;20461;-74
2024/02/19 00:48:23;;;;;;;8.43;2.28;;;15.90;99.90;;;;;;5005297;28;20126;-74
2024/02/19 00:50:49;;;;;;;5.53;1.47;;;15.90;99.90;;;;;;4998271;28;20026;-74
2024/02/19 00:53:15;;;;;;;7.23;2.13;;;15.90;99.90;;;;;;5008829;28;20026;-73
2024/02/19 00:55:40;;;;;;;10.27;2.30;;;15.90;99.90;;;;;;5009094;28;20564;-74
2024/02/19 00:58:06;;;;;;;11.70;2.10;;;15.90;99.90;;;;;;5007208;28;20136;-73
2024/02/19 01:00:32;;;;;;;10.43;2.00;;;15.90;99.90;;;;;;5005468;28;20430;-74
2024/02/19 01:02:58;;;;;;;5.27;1.93;;;15.90;99.90;;;;;;4993599;28;20018;-73
2024/02/19 01:05:27;;;;;;;7.47;1.40;;;15.90;99.90;;;;;;5002425;28;20041;-74
2024/02/19 01:07:52;;;;;;;4.78;1.48;;;15.90;99.90;;;;;;5008588;28;20057;-76
2024/02/19 01:10:19;;;;;;;7.93;1.73;;;15.90;99.90;;;;;;5001344;28;20391;-76
2024/02/19 01:12:44;;;;;;;10.10;1.90;;;15.90;99.90;;;;;;4995930;28;20408;-73
2024/02/19 01:15:10;;;;;;;4.83;1.53;;;15.90;99.90;;;;;;5001337;28;20061;-75
2024/02/19 01:17:36;;;;;;;8.43;2.40;;;15.80;99.90;;;;;;4998500;28;20030;-74
2024/02/19 01:20:04;;;;;;;10.67;1.70;;;15.80;99.90;;;;;;4995726;28;20049;-76
2024/02/19 01:22:30;;;;;;;5.85;1.60;;;15.80;99.90;;;;;;5005538;28;20065;-74
2024/02/19 01:24:56;;;;;;;7.03;1.70;;;15.90;99.90;;;;;;4998243;28;20058;-74
2024/02/19 01:27:22;;;;;;;6.47;1.80;;;15.80;99.90;;;;;;5003010;28;20029;-75
2024/02/19 01:29:48;;;;;;;7.40;2.13;;;15.90;99.90;;;;;;5000308;28;20041;-76
2024/02/19 01:32:14;;;;;;;8.07;1.98;;;15.80;99.90;;;;;;4992224;28;20109;-73
2024/02/19 01:34:40;;;;;;;6.20;1.50;;;15.80;99.90;;;;;;5005053;28;20046;-74
2024/02/19 01:37:06;;;;;;;4.20;1.77;;;15.80;99.90;;;;;;4990352;28;20038;-75
2024/02/19 01:39:32;;;;;;;6.30;1.50;;;15.80;99.90;;;;;;4994705;28;20464;-75
2024/02/19 01:41:59;;;;;;;10.88;2.30;;;15.80;99.90;;;;;;5000340;28;20036;-75
2024/02/19 01:44:24;;;;;;;7.32;2.13;;;15.80;99.90;;;;;;5004268;28;20044;-75
2024/02/19 01:46:51;;;;;;;7.43;1.63;;;15.80;99.90;;;;;;4995133;28;20038;-75
2024/02/19 01:49:17;;;;;;;3.53;1.40;;;15.80;99.90;;;;;;5002386;28;20410;-75
2024/02/19 01:51:43;;;;;;;6.53;1.88;;;15.80;99.90;;;;;;4991974;28;20042;-73
2024/02/19 01:54:11;;;;;;;5.68;1.55;;;15.80;99.90;;;;;;5003867;28;20034;-74
2024/02/19 01:56:38;;;;;;;6.28;1.60;;;15.80;99.90;;;;;;4996940;28;20487;-74
2024/02/19 01:59:06;;;;;;;6.70;1.70;;;15.70;99.90;;;;;;4998869;28;20034;-75
2024/02/19 02:01:36;;;;;;;6.82;1.67;;;15.80;99.90;;;;;;4999722;28;20030;-74
2024/02/19 02:04:03;;;;;;;8.52;1.63;;;15.70;99.90;;;;;;5004048;28;20518;-74
2024/02/19 02:06:28;;;;;;;5.95;1.83;;;15.70;99.90;;;;;;4999489;28;20092;-74
2024/02/19 02:08:55;;;;;;;5.63;1.30;;;15.70;99.90;;;;;;5006611;28;20050;-74
2024/02/19 02:11:21;;;;;;;6.07;1.42;;;15.70;99.90;;;;;;4999418;28;20026;-74
2024/02/19 02:13:46;;;;;;;8.70;2.20;;;15.70;99.90;;;;;;5005739;28;20042;-73
2024/02/19 02:16:22;;;;;;;6.83;1.33;;;15.70;99.90;;;;;;5006913;28;20462;-73
2024/02/19 02:18:48;;;;;;;4.93;1.33;;;15.70;99.90;;;;;;5000611;28;20034;-74
2024/02/19 02:21:16;;;;;;;7.23;1.20;;;15.70;99.90;;;;;;5001684;28;20042;-73
2024/02/19 02:23:41;;;;;;;6.45;1.42;;;15.70;99.90;;;;;;5004302;28;20123;-75
2024/02/19 02:26:07;;;;;;;6.87;1.53;;;15.70;99.90;;;;;;5004383;28;20030;-74
2024/02/19 02:28:33;;;;;;;8.45;1.40;;;15.70;99.90;;;;;;5001684;28;20395;-76
2024/02/19 02:30:59;;;;;;;8.63;2.30;;;15.70;99.90;;;;;;5002658;28;20033;-74
2024/02/19 02:33:25;;;;;;;7.07;1.57;;;15.70;99.90;;;;;;5004380;28;20586;-74
2024/02/19 02:35:50;;;;;;;5.90;1.80;;;15.70;99.90;;;;;;5003279;28;20032;-74
2024/02/19 02:38:17;;;;;;;7.30;1.20;;;15.70;99.90;;;;;;5004792;28;20030;-76
2024/02/19 02:40:43;;;;;;;11.43;1.75;;;15.60;99.90;;;;;;5003759;28;20041;-74
2024/02/19 02:43:08;;;;;;;6.30;1.40;;;15.60;99.90;;;;;;4999518;28;20034;-73
2024/02/19 02:45:34;;;;;;;6.23;1.20;;;15.70;99.90;;;;;;5005519;28;20034;-74
2024/02/19 02:48:00;;;;;;;5.63;1.60;;;15.70;99.90;;;;;;4996140;28;20053;-76
2024/02/19 02:50:25;;;;;;;9.37;1.50;;;15.60;99.90;;;;;;4998367;28;20023;-74
2024/02/19 02:52:51;;;;;;;5.90;1.90;;;15.60;99.90;;;;;;5000179;28;20026;-73
2024/02/19 02:55:17;;;;;;;7.70;1.80;;;15.60;99.90;;;;;;5007518;28;20119;-73
2024/02/19 02:57:43;;;;;;;6.53;1.87;;;15.60;99.90;;;;;;5013262;28;20487;-74
2024/02/19 03:00:09;;;;;;;6.17;1.40;;;15.60;99.90;;;;;;5010825;28;20034;-74
2024/02/19 03:02:35;;;;;;;5.43;1.50;;;15.60;99.90;;;;;;4998490;28;20169;-74
2024/02/19 03:05:01;;;;;;;7.80;1.33;;;15.60;99.90;;;;;;5007423;28;20124;-73
2024/02/19 03:07:26;;;;;;;6.83;1.53;;;15.60;99.90;;;;;;5009832;28;20189;-73
2024/02/19 03:09:53;;;;;;;9.07;1.50;;;15.60;99.90;;;;;;5005707;28;20035;-73
2024/02/19 03:12:18;;;;;;;6.75;1.70;;;15.60;99.90;;;;;;5008069;28;20030;-75
2024/02/19 03:14:44;;;;;;;10.70;1.40;;;15.60;99.90;;;;;;5004674;28;20490;-73
2024/02/19 03:17:10;;;;;;;6.77;1.67;;;15.60;99.90;;;;;;4999867;28;20417;-73
2024/02/19 03:19:36;;;;;;;7.30;1.80;;;15.60;99.90;;;;;;5004946;28;20033;-74
2024/02/19 03:22:04;;;;;;;7.23;1.97;;;15.60;99.90;;;;;;4995825;28;20104;-73
2024/02/19 03:24:30;;;;;;;10.23;1.60;;;15.60;99.90;;;;;;5003204;28;20109;-73
2024/02/19 03:26:58;;;;;;;6.45;2.08;;;15.60;99.90;;;;;;5000443;28;20034;-75
2024/02/19 03:29:24;;;;;;;6.28;1.55;;;15.60;99.90;;;;;;5002485;28;20165;-76
2024/02/19 03:31:50;;;;;;;8.60;1.27;;;15.50;99.90;;;;;;5004816;28;20133;-74
2024/02/19 03:34:15;;;;;;;11.57;1.97;;;15.60;99.90;;;;;;5002133;28;20033;-75
2024/02/19 03:36:49;;;;;;;5.43;1.43;;;15.50;99.90;;;;;;4995257;28;20433;-73
2024/02/19 03:39:15;;;;;;;10.25;1.60;;;15.50;99.90;;;;;;4998558;28;20475;-75
2024/02/19 03:41:41;;;;;;;8.07;1.65;;;15.50;99.90;;;;;;5002737;28;20032;-73
2024/02/19 03:44:07;;;;;;;5.57;1.67;;;15.50;99.90;;;;;;5002398;28;20387;-73
2024/02/19 03:46:33;;;;;;;8.63;1.13;;;15.50;99.90;;;;;;5000453;28;20541;-73
2024/02/19 03:48:58;;;;;;;5.23;1.30;;;15.50;99.90;;;;;;4996220;28;20031;-73
2024/02/19 03:51:24;;;;;;;5.77;1.30;;;15.50;99.90;;;;;;4999727;28;20054;-74
2024/02/19 03:53:50;;;;;;;5.67;1.77;;;15.50;99.90;;;;;;4993901;28;20561;-74
2024/02/19 03:56:17;;;;;;;10.60;1.87;;;15.50;99.90;;;;;;5006986;28;20518;-74
2024/02/19 03:58:43;;;;;;;9.52;1.50;;;15.50;99.90;;;;;;4998178;28;20361;-73
2024/02/19 04:01:09;;;;;;;6.00;1.67;;;15.50;99.90;;;;;;4998583;28;20038;-74
2024/02/19 04:03:34;;;;;;;5.10;1.30;;;15.50;99.90;;;;;;4999751;28;20030;-73
2024/02/19 04:06:00;;;;;;;6.67;1.40;;;15.50;99.90;;;;;;4996255;28;20045;-74
2024/02/19 04:08:26;;;;;;;4.80;1.40;;;15.50;99.90;;;;;;5001575;28;20042;-73
2024/02/19 04:10:52;;;;;;;4.77;1.33;;;15.50;99.90;;;;;;5002250;28;20026;-73
2024/02/19 04:13:17;;;;;;;10.10;1.87;;;15.50;99.90;;;;;;5010151;28;20475;-73
2024/02/19 04:15:43;;;;;;;7.43;1.07;;;15.50;99.90;;;;;;4999909;28;20477;-72
2024/02/19 04:18:09;;;;;;;8.23;1.87;;;15.50;99.90;;;;;;5010677;28;20029;-75
2024/02/19 04:20:35;;;;;;;6.55;1.50;;;15.40;99.90;;;;;;5000107;28;20034;-74
2024/02/19 04:23:01;;;;;;;5.80;1.60;;;15.50;99.90;;;;;;5003686;28;20388;-73
2024/02/19 04:25:26;;;;;;;5.30;1.10;;;15.50;99.90;;;;;;5007130;28;20029;-73
2024/02/19 04:27:53;;;;;;;6.23;1.20;;;15.40;99.90;;;;;;5006541;28;20083;-74
2024/02/19 04:30:18;;;;;;;6.32;1.40;;;15.40;99.90;;;;;;5000855;28;20036;-74
2024/02/19 04:32:44;;;;;;;7.17;1.40;;;15.50;99.90;;;;;;5008692;28;20029;-74
2024/02/19 04:35:10;;;;;;;9.17;1.97;;;15.40;99.90;;;;;;5005422;28;20433;-73
2024/02/19 04:37:36;;;;;;;7.17;1.20;;;15.40;99.90;;;;;;5002254;28;20491;-76
2024/02/19 04:40:02;;;;;;;8.40;1.53;;;15.40;99.90;;;;;;5006820;28;20034;-74
2024/02/19 04:42:28;;;;;;;10.20;1.00;;;15.40;99.90;;;;;;5001884;28;20030;-74
2024/02/19 04:44:54;;;;;;;2.70;1.33;;;15.40;99.90;;;;;;5002075;28;20052;-74
2024/02/19 04:47:20;;;;;;;5.73;1.40;;;15.40;99.90;;;;;;5002015;28;20042;-73
2024/02/19 04:49:47;;;;;;;8.33;1.67;;;15.40;99.90;;;;;;5003676;28;20052;-72
2024/02/19 04:52:12;;;;;;;;;;;15.40;99.90;;;;;;4997828;28;20041;-75
2024/02/19 04:54:38;;;;;;;8.20;1.83;;;15.40;99.90;;;;;;5003934;28;19921;-73
2024/02/19 04:57:04;;;;;;;8.35;1.13;;;15.40;99.90;;;;;;5007320;28;20083;-73
2024/02/19 04:59:30;;;;;;;7.00;1.27;;;15.40;99.90;;;;;;5002243;28;20042;-73
2024/02/19 05:01:56;;;;;;;7.47;1.53;;;15.40;99.90;;;;;;5000093;28;20406;-76
2024/02/19 05:04:23;;;;;;;7.53;1.53;;;15.40;99.90;;;;;;4999174;28;21561;-76
2024/02/19 05:06:49;;;;;;;6.05;1.58;;;15.30;99.90;;;;;;5006304;28;20026;-73
2024/02/19 05:09:15;;;;;;;4.25;0.90;;;15.40;99.90;;;;;;4993803;28;20034;-74
2024/02/19 05:11:40;;;;;;;4.40;1.47;;;15.40;99.90;;;;;;5008014;28;20048;-73
2024/02/19 05:14:06;;;;;;;3.60;0.90;;;15.40;99.90;;;;;;5000118;28;20109;-74
2024/02/19 05:16:32;;;;;;;2.50;1.00;;;15.30;99.90;;;;;;5006022;28;20033;-74
2024/02/19 05:19:00;;;;;;;2.20;0.97;;;15.30;99.90;;;;;;5003903;28;20038;-73
2024/02/19 05:21:25;;;;;;;5.07;1.30;;;15.30;99.90;;;;;;5001438;28;20026;-73
2024/02/19 05:23:51;;;;;;;9.53;1.50;;;15.30;99.90;;;;;;5002973;28;20037;-73
2024/02/19 05:26:27;;;;;;;3.93;1.27;;;15.30;99.90;;;;;;4997124;28;20367;-74
2024/02/19 05:28:56;;;;;;;6.70;1.67;;;15.30;99.90;;;;;;5003836;28;20129;-75
2024/02/19 05:31:35;;;;;;;6.50;1.38;;;15.30;99.90;;;;;;5003091;28;20045;-73
2024/02/19 05:34:03;;;;;;;4.47;1.20;;;15.30;99.90;;;;;;5004550;28;20109;-75
2024/02/19 05:36:29;;;;;;;4.60;1.30;;;15.30;99.90;;;;;;5005727;28;20030;-73
2024/02/19 05:38:55;;;;;;;6.28;1.45;;;15.30;99.90;;;;;;4999201;28;20037;-73
2024/02/19 05:41:21;;;;;;;5.33;1.47;;;15.30;99.90;;;;;;4997489;28;20034;-75
2024/02/19 05:43:47;;;;;;;7.37;1.27;;;15.30;99.90;;;;;;4995521;28;20027;-73
2024/02/19 05:46:16;;;;;;;4.40;0.88;;;15.30;99.90;;;;;;5003397;28;20034;-73
2024/02/19 05:48:42;;;;;;;6.10;1.55;;;15.30;99.90;;;;;;5007661;28;20120;-73
2024/02/19 05:51:08;;;;;;;3.80;1.00;;;15.30;99.90;;;;;;5004698;28;20028;-76
2024/02/19 05:53:34;;;;;;;7.30;1.23;;;15.30;99.90;;;;;;5003324;28;21074;-75
2024/02/19 05:56:00;;;;;;;2.92;1.00;;;15.30;99.90;;;;;;5002843;28;20030;-73
2024/02/19 05:58:26;;;;;;;4.03;1.42;;;15.30;99.90;;;;;;5004941;28;20475;-73
2024/02/19 06:00:52;;;;;;;4.47;1.23;;;15.30;99.90;;;;;;4997494;28;20060;-74
2024/02/19 06:03:18;;;;;;;4.03;0.90;;;15.20;99.90;;;;;;4997658;28;20118;-72
2024/02/19 06:05:43;;;;;;;6.37;1.67;;;15.30;99.90;;;;;;5006049;28;20042;-74
2024/02/19 06:08:09;;;;;;;3.70;1.20;;;15.30;99.90;;;;;;5000663;28;20521;-75
2024/02/19 06:10:35;;;;;;;4.13;1.27;;;15.30;99.90;;;;;;5007270;28;20034;-73
2024/02/19 06:13:00;;;;;;;3.10;0.87;;;15.30;99.90;;;;;;5003929;28;20034;-74
2024/02/19 06:15:27;;;;;;;7.70;1.53;;;15.30;99.90;;;;;;5005268;28;20472;-73
2024/02/19 06:17:53;;;;;;;4.18;1.17;;;15.20;99.90;;;;;;4993420;28;20045;-76
2024/02/19 06:20:19;;;;;;;5.93;1.60;;;15.20;99.90;;;;;;4999683;28;20057;-73
2024/02/19 06:22:45;;;;;;;7.17;1.83;;;15.30;99.90;;;;;;5007784;28;20037;-72
2024/02/19 06:25:11;;;;;;;7.28;1.50;;;15.30;99.90;;;;;;4998100;28;20038;-74
2024/02/19 06:27:37;;;;;;;6.87;1.97;;;15.20;99.90;;;;;;5010045;28;20510;-76
2024/02/19 06:30:04;;;;;;;4.57;0.97;;;15.20;99.90;;;;;;5004593;28;20116;-74
2024/02/19 06:32:29;;;;;;;;;;;15.20;99.90;;;;;;4997549;28;20049;-73
2024/02/19 06:34:55;;;;;;;6.13;1.20;;;15.20;99.90;;;;;;5004299;28;20355;-73
2024/02/19 06:37:21;;;;;;;2.28;0.90;;;15.30;99.90;;;;;;4999117;28;20053;-74
2024/02/19 06:39:47;;;;;;;4.83;1.77;;;15.20;99.90;;;;;;5006434;28;20042;-75
2024/02/19 06:42:13;;;;;;;7.07;1.27;;;15.20;99.90;;;;;;5006506;28;20037;-73
2024/02/19 06:44:39;;;;;;;2.47;1.00;;;15.20;99.90;;;;;;5008350;28;20022;-73
2024/02/19 06:47:04;;;;;;;3.93;1.30;;;15.20;99.90;;;;;;5000046;28;20069;-74
2024/02/19 06:49:30;;;;;;;6.67;1.40;;;15.20;99.90;;;;;;4997973;28;20042;-73
2024/02/19 06:51:56;;;;;;;4.37;1.20;;;15.20;99.90;;;;;;5000221;28;20040;-74
2024/02/19 06:54:21;;;;;;;5.07;1.03;;;15.20;99.90;;;;;;5003616;28;20089;-74
2024/02/19 06:56:47;;;;;;;3.73;1.63;;;15.20;99.90;;;;;;5009801;28;20425;-73
2024/02/19 06:59:13;;;;;;;3.33;1.00;;;15.20;99.90;;;;;;5012644;28;20038;-73
2024/02/19 07:01:39;;;;;;;6.03;1.37;;;15.20;99.90;;;;;;4999198;28;20624;-73
2024/02/19 07:04:05;;;;;;;6.70;0.90;;;15.20;99.90;;;;;;5002386;28;20038;-72
2024/02/19 07:06:31;;;;;;;4.03;1.10;;;15.30;99.90;;;;;;5001288;28;20133;-73
2024/02/19 07:08:57;;;;;;;6.05;1.98;;;15.40;99.90;;;;;;5010247;28;20058;-75
2024/02/19 07:11:23;;;;;;;15.13;2.37;;;15.40;99.90;;;;;;4997014;28;20471;-75
2024/02/19 07:13:51;;;;;;;36.57;11.97;;;15.40;99.90;;;;;;5008371;28;20048;-73
2024/02/19 07:16:17;;;;;;;31.52;10.48;;;15.40;99.90;;;;;;5001805;28;20114;-73
2024/02/19 07:18:43;;;;;;;13.70;4.97;;;15.40;99.90;;;;;;5009733;28;20112;-73
2024/02/19 07:21:09;;;;;;;22.63;8.23;;;15.40;99.90;;;;;;5001399;28;20044;-74
2024/02/19 07:23:34;;;;;;;21.03;5.17;;;15.40;99.90;;;;;;4998987;28;20033;-73
2024/02/19 07:26:00;;;;;;;12.43;4.53;;;15.50;99.90;;;;;;5003060;28;20766;-72
2024/02/19 07:28:26;;;;;;;15.97;3.97;;;15.40;99.90;;;;;;5005468;28;20044;-76
2024/02/19 07:30:52;;;;;;;31.35;19.38;;;15.50;99.90;;;;;;5000786;28;20034;-72
2024/02/19 07:33:18;;;;;;;75.97;42.17;;;15.50;99.90;;;;;;5009129;28;20033;-72
2024/02/19 07:35:44;;;;;;;25.20;16.20;;;15.50;99.90;;;;;;5002659;28;20041;-73
2024/02/19 07:38:09;;;;;;;27.60;13.60;;;15.50;99.90;;;;;;5009664;28;20487;-73
2024/02/19 07:40:35;;;;;;;42.77;25.67;;;15.50;99.90;;;;;;5010188;28;20041;-73
2024/02/19 07:43:01;;;;;;;37.07;20.23;;;15.60;99.90;;;;;;5010004;28;20410;-77
2024/02/19 07:45:27;;;;;;;25.07;16.40;;;15.60;99.90;;;;;;5007010;28;20072;-73
2024/02/19 07:47:52;;;;;;;28.90;16.80;;;15.60;99.90;;;;;;5007082;28;20464;-72
2024/02/19 07:50:18;;;;;;;32.47;17.30;;;15.60;99.90;;;;;;5008905;28;20037;-73
2024/02/19 07:52:44;;;;;;;32.20;16.27;;;15.60;99.90;;;;;;5002162;28;20057;-73
2024/02/19 07:55:10;;;;;;;23.30;14.63;;;15.60;99.90;;;;;;5001477;28;20549;-73
2024/02/19 07:57:44;;;;;;;24.07;14.03;;;15.60;99.90;;;;;;5005488;28;20042;-75
2024/02/19 08:00:10;;;;;;;19.10;13.52;;;15.60;99.90;;;;;;5003154;28;20034;-72
2024/02/19 08:02:35;;;;;;;24.60;13.25;;;15.60;99.90;;;;;;5002980;28;20034;-75
2024/02/19 08:05:01;;;;;;;25.13;12.47;;;15.70;99.90;;;;;;4997695;28;20034;-72
2024/02/19 08:07:27;;;;;;;24.03;13.70;;;15.70;99.90;;;;;;5003387;28;20112;-72
2024/02/19 08:09:52;;;;;;;24.03;12.17;;;15.70;99.90;;;;;;5004619;28;20038;-73
2024/02/19 08:12:18;;;;;;;23.80;11.33;;;15.70;99.90;;;;;;5000832;28;20112;-73
2024/02/19 08:14:44;;;;;;;40.33;21.57;;;15.70;99.90;;;;;;5002898;28;20096;-73
2024/02/19 08:17:09;;;;;;;43.90;22.70;;;15.70;99.90;;;;;;5000987;28;20406;-73
2024/02/19 08:19:36;;;;;;;26.37;13.67;;;15.70;99.90;;;;;;5011944;28;20030;-76
2024/02/19 08:22:01;;;;;;;25.05;14.95;;;15.70;99.90;;;;;;5001479;28;20100;-73
2024/02/19 08:24:27;;;;;;;21.97;12.80;;;15.80;99.90;;;;;;5009559;28;20038;-73
2024/02/19 08:26:53;;;;;;;27.73;13.80;;;15.80;99.90;;;;;;5006208;28;20065;-75
2024/02/19 08:29:19;;;;;;;30.67;15.37;;;15.80;99.90;;;;;;5003739;28;20041;-75
2024/02/19 08:31:45;;;;;;;25.38;15.80;;;15.80;99.90;;;;;;5002332;28;20034;-73
2024/02/19 08:34:10;;;;;;;26.67;13.93;;;15.80;99.90;;;;;;5003752;28;20049;-72
2024/02/19 08:36:37;;;;;;;20.77;12.80;;;15.80;99.90;;;;;;5004985;28;20117;-74
2024/02/19 08:39:02;;;;;;;23.48;13.15;;;15.80;99.90;;;;;;4998918;28;20446;-73
2024/02/19 08:41:30;;;;;;;24.13;12.70;;;15.80;99.90;;;;;;5003573;28;20042;-75
2024/02/19 08:43:55;;;;;;;21.25;11.95;;;15.80;99.90;;;;;;4996906;28;20038;-73
2024/02/19 08:46:21;;;;;;;23.23;11.53;;;15.90;99.90;;;;;;5004619;28;20033;-73
2024/02/19 08:48:48;;;;;;;23.03;12.70;;;15.90;99.90;;;;;;5003083;28;20084;-72
2024/02/19 08:51:14;;;;;;;;;;;15.90;99.90;;;;;;5003027;28;20036;-74
2024/02/19 08:53:40;;;;;;;24.60;12.07;;;16.00;99.90;;;;;;5000446;28;20358;-73
2024/02/19 08:56:06;;;;;;;24.63;11.10;;;16.00;99.90;;;;;;5002212;28;20026;-75
2024/02/19 08:58:33;;;;;;;24.20;11.65;;;16.00;99.90;;;;;;5001726;28;20041;-75
2024/02/19 09:00:59;;;;;;;21.70;10.88;;;16.00;99.90;;;;;;5003196;28;20376;-74
2024/02/19 09:03:25;;;;;;;24.37;10.47;;;16.10;99.90;;;;;;5002774;28;20037;-72
2024/02/19 09:05:51;;;;;;;22.63;10.53;;;16.10;99.90;;;;;;5005192;28;20030;-72
2024/02/19 09:08:16;;;;;;;20.47;10.07;;;16.10;99.90;;;;;;5005870;28;20058;-74
2024/02/19 09:10:42;;;;;;;24.67;9.73;;;16.10;99.90;;;;;;5003797;28;20030;-72
2024/02/19 09:13:08;;;;;;;15.57;9.17;;;16.10;99.90;;;;;;5007545;28;20025;-72
2024/02/19 09:15:33;;;;;;;18.73;8.77;;;16.10;99.90;;;;;;5003650;28;20387;-72
2024/02/19 09:17:59;;;;;;;18.53;8.77;;;16.10;99.90;;;;;;4999951;28;20181;-72
2024/02/19 09:20:25;;;;;;;15.77;9.07;;;16.10;99.90;;;;;;5007362;28;20395;-74
2024/02/19 09:22:50;;;;;;;18.10;8.67;;;16.10;99.90;;;;;;5003249;28;20030;-72
2024/02/19 09:25:16;;;;;;;16.90;8.90;;;16.20;99.90;;;;;;5005943;28;20527;-73
2024/02/19 09:27:42;;;;;;;21.83;9.97;;;16.20;99.90;;;;;;5003709;28;20033;-72
2024/02/19 09:30:08;;;;;;;17.90;8.40;;;16.30;99.90;;;;;;5007580;28;20034;-72
2024/02/19 09:32:34;;;;;;;18.48;9.93;;;16.30;99.90;;;;;;4996756;28;20062;-74
2024/02/19 09:35:05;;;;;;;17.53;9.03;;;16.30;99.90;;;;;;5005637;28;20038;-72
2024/02/19 09:37:31;;;;;;;18.52;8.52;;;16.30;99.90;;;;;;5003094;28;20038;-73
2024/02/19 09:39:59;;;;;;;18.73;7.80;;;16.30;99.90;;;;;;4998911;28;20049;-75
2024/02/19 09:42:29;;;;;;;15.32;8.13;;;16.30;99.90;;;;;;5001311;28;20036;-72
2024/02/19 09:44:56;;;;;;;17.13;8.20;;;16.30;99.90;;;;;;4999163;28;20126;-72
2024/02/19 09:47:22;;;;;;;15.52;7.50;;;16.30;99.90;;;;;;5002542;28;20034;-72
2024/02/19 09:49:48;;;;;;;18.27;8.43;;;16.30;99.90;;;;;;5008288;28;20038;-74
2024/02/19 09:52:25;;;;;;;15.98;7.28;;;16.30;99.90;;;;;;5006473;28;20490;-74
2024/02/19 09:54:51;;;;;;;13.68;7.15;;;16.30;99.90;;;;;;5005210;28;20653;-73
2024/02/19 09:57:21;;;;;;;15.98;7.78;;;16.30;99.90;;;;;;5010845;28;20518;-72
2024/02/19 09:59:48;;;;;;;13.80;7.00;;;16.30;99.90;;;;;;5002459;28;20038;-72
2024/02/19 10:02:18;;;;;;;14.63;6.63;;;16.30;99.90;;;;;;5007578;28;20026;-72
2024/02/19 10:04:46;;;;;;;13.93;6.82;;;16.40;99.90;;;;;;5008729;28;20029;-72
2024/02/19 10:07:17;;;;;;;10.82;5.97;;;16.40;99.90;;;;;;5007270;28;20050;-73
2024/02/19 10:09:42;;;;;;;13.55;6.20;;;16.40;99.90;;;;;;5009662;28;20037;-73
2024/02/19 10:12:08;;;;;;;15.80;5.57;;;16.40;99.90;;;;;;5013468;28;20125;-73
2024/02/19 10:14:34;;;;;;;10.20;5.20;;;16.40;99.90;;;;;;5005187;28;20026;-73
2024/02/19 10:17:02;;;;;;;14.07;7.00;;;16.40;99.90;;;;;;5002852;28;20451;-73
2024/02/19 10:19:28;;;;;;;13.60;6.00;;;16.40;99.90;;;;;;5011268;28;20034;-73
2024/02/19 10:21:54;;;;;;;12.43;6.07;;;16.50;99.90;;;;;;5001420;28;20033;-73
2024/02/19 10:24:20;;;;;;;10.87;5.80;;;16.50;99.90;;;;;;5011371;28;20030;-74
2024/02/19 10:26:47;;;;;;;14.03;6.20;;;16.50;99.90;;;;;;5000718;28;20105;-73
2024/02/19 10:29:14;;;;;;;33.50;15.00;;;16.50;99.90;;;;;;5005804;28;20026;-71
2024/02/19 10:31:41;;;;;;;21.08;8.95;;;16.50;99.90;;;;;;5009165;28;20037;-72
2024/02/19 10:34:09;;;;;;;16.83;8.07;;;16.60;99.90;;;;;;4999850;28;20068;-71
2024/02/19 10:36:35;;;;;;;16.83;8.10;;;16.60;99.90;;;;;;5002714;28;20419;-72
2024/02/19 10:39:02;;;;;;;17.17;7.70;;;16.60;99.90;;;;;;4999117;28;20065;-74
2024/02/19 10:41:27;;;;;;;;;;;16.60;99.90;;;;;;5011549;28;20042;-73
2024/02/19 10:43:53;;;;;;;13.63;5.82;;;16.60;99.90;;;;;;5008118;28;19913;-75
2024/02/19 10:46:21;;;;;;;11.50;6.75;;;16.60;99.90;;;;;;5011937;28;20044;-72
2024/02/19 10:48:53;;;;;;;14.63;6.28;;;16.60;99.90;;;;;;5005961;28;20034;-72
2024/02/19 10:51:20;;;;;;;16.75;6.10;;;16.60;99.90;;;;;;5007900;28;20471;-73
2024/02/19 10:53:46;;;;;;;11.23;5.43;;;16.70;99.90;;;;;;5022434;28;20084;-74
2024/02/19 10:56:16;;;;;;;15.55;5.82;;;16.70;99.90;;;;;;5004130;28;20032;-72
2024/02/19 10:58:59;;;;;;;13.10;5.78;;;16.70;99.90;;;;;;5011393;28;20042;-75
2024/02/19 11:01:39;;;;;;;15.18;5.50;;;16.70;99.90;;;;;;5007741;28;20431;-74
2024/02/19 11:04:17;;;;;;;15.07;5.72;;;16.70;99.90;;;;;;5008701;28;20026;-73
2024/02/19 11:06:47;;;;;;;16.50;5.55;;;16.80;99.90;;;;;;5010088;28;20115;-72
2024/02/19 11:09:13;;;;;;;12.60;5.45;;;16.80;99.90;;;;;;4998471;28;20058;-73
2024/02/19 11:11:47;;;;;;;11.23;5.05;;;16.90;99.90;;;;;;5004228;28;20026;-73
2024/02/19 11:14:23;;;;;;;10.27;5.00;;;16.90;99.90;;;;;;5008225;28;20058;-72
2024/02/19 11:16:50;;;;;;;12.68;5.00;;;16.90;99.90;;;;;;5005527;28;20018;-72
2024/02/19 11:19:19;;;;;;;11.63;5.35;;;16.90;99.90;;;;;;5007706;28;20052;-73
2024/02/19 11:21:45;;;;;;;12.77;5.28;;;16.90;99.90;;;;;;5002587;28;20057;-72
2024/02/19 11:24:12;;;;;;;10.77;4.38;;;16.90;99.90;;;;;;5006237;28;20112;-74
2024/02/19 11:26:41;;;;;;;11.90;4.78;;;16.90;99.90;;;;;;5007830;28;20383;-73
2024/02/19 11:29:15;;;;;;;8.65;4.55;;;16.80;99.90;;;;;;5008100;28;20483;-73
2024/02/19 11:31:43;;;;;;;9.77;4.63;;;16.80;99.90;;;;;;5002027;28;20034;-73
2024/02/19 11:34:20;;;;;;;11.43;4.53;;;16.80;99.90;;;;;;5003681;28;20033;-74
2024/02/19 11:36:46;;;;;;;7.80;3.92;;;16.80;99.90;;;;;;5006755;28;20040;-73
2024/02/19 11:39:13;;;;;;;9.80;6.35;;;16.80;99.90;;;;;;5007931;28;20475;-72
2024/02/19 11:41:43;;;;;;;11.70;4.38;;;16.90;99.90;;;;;;4992267;28;20101;-75
2024/02/19 11:44:15;;;;;;;11.18;4.45;;;16.90;99.90;;;;;;5007888;28;20028;-75
2024/02/19 11:46:41;;;;;;;16.27;5.03;;;16.90;99.90;;;;;;5004644;28;20023;-72
2024/02/19 11:49:12;;;;;;;25.42;8.02;;;16.90;99.90;;;;;;5006793;28;20040;-73
2024/02/19 11:51:39;;;;;;;25.70;7.45;;;17.00;99.90;;;;;;5003314;28;20125;-75
2024/02/19 11:54:15;;;;;;;21.67;7.03;;;17.10;99.90;;;;;;5008119;28;20450;-74
2024/02/19 11:56:51;;;;;;;24.58;7.80;;;17.20;99.90;;;;;;5007816;28;20096;-74
2024/02/19 11:59:18;;;;;;;;;;;17.20;99.90;;;;;;5009923;28;20487;-73
2024/02/19 12:01:44;;;;;;;26.58;8.40;;;17.20;99.90;;;;;;5001248;28;20286;-74
2024/02/19 12:04:12;;;;;;;24.55;8.70;;;17.10;99.90;;;;;;4999655;28;20037;-74
2024/02/19 12:06:39;;;;;;;29.75;7.28;;;17.10;99.90;;;;;;5000112;28;20033;-73
2024/02/19 12:09:08;;;;;;;23.63;8.27;;;17.00;99.90;;;;;;5002628;28;20046;-73
2024/02/19 12:11:37;;;;;;;26.38;8.00;;;17.00;99.90;;;;;;4969451;28;20034;-75
2024/02/19 12:14:04;;;;;;;23.00;7.70;;;17.00;99.90;;;;;;4977190;28;20112;-74
2024/02/19 12:16:31;;;;;;;21.15;6.68;;;17.10;99.90;;;;;;4994865;28;20439;-75
2024/02/19 12:18:57;;;;;;;24.98;6.80;;;17.10;99.90;;;;;;4995858;28;20026;-73
2024/02/19 12:21:24;;;;;;;25.23;6.95;;;17.00;99.90;;;;;;5007932;28;20048;-72
2024/02/19 12:23:52;;;;;;;23.73;6.80;;;17.00;99.90;;;;;;4997337;28;20041;-74
2024/02/19 12:26:21;;;;;;;22.98;6.47;;;17.00;99.90;;;;;;5008022;28;20030;-72
2024/02/19 12:28:47;;;;;;;21.88;6.32;;;17.10;99.90;;;;;;5002340;28;20042;-73
2024/02/19 12:31:14;;;;;;;20.38;7.15;;;17.10;99.90;;;;;;5008993;28;20030;-74
2024/02/19 12:33:40;;;;;;;21.77;6.38;;;17.10;99.90;;;;;;5006168;28;20479;-74
2024/02/19 12:36:08;;;;;;;18.23;5.75;;;17.00;99.90;;;;;;5004499;28;20022;-72
2024/02/19 12:38:41;;;;;;;21.85;5.95;;;17.00;99.90;;;;;;5008301;28;20033;-72
2024/02/19 12:41:14;;;;;;;15.63;5.53;;;17.00;99.90;;;;;;5001293;28;20065;-72